createdAt,value
2018-11-25T00:01:24.329Z,17.03
2018-11-25T00:03:52.748Z,15.83
2018-11-25T00:06:21.149Z,16.57
2018-11-25T00:08:49.635Z,17.83
2018-11-25T00:11:18.173Z,18.47
2018-11-25T00:13:46.740Z,16.77
2018-11-25T00:16:15.282Z,18.00
2018-11-25T00:18:43.779Z,18.67
2018-11-25T00:21:12.202Z,16.77
2018-11-25T00:23:41.055Z,18.53
2018-11-25T00:26:09.568Z,17.60
2018-11-25T00:28:37.972Z,16.03
2018-11-25T00:31:09.660Z,16.37
2018-11-25T00:33:34.962Z,15.23
2018-11-25T00:36:03.472Z,15.37
2018-11-25T00:38:31.867Z,18.73
2018-11-25T00:41:00.281Z,16.37
2018-11-25T00:43:28.688Z,17.60
2018-11-25T00:45:57.063Z,18.73
2018-11-25T00:48:25.645Z,16.10
2018-11-25T00:50:53.986Z,17.13
2018-11-25T00:53:22.412Z,18.00
2018-11-25T00:55:50.840Z,16.83
2018-11-25T00:58:19.214Z,16.53
2018-11-25T01:00:47.618Z,16.27
2018-11-25T01:03:16.086Z,16.63
2018-11-25T01:05:44.576Z,17.90
2018-11-25T01:08:12.965Z,17.70
2018-11-25T01:10:41.460Z,19.07
2018-11-25T01:13:09.859Z,17.80
2018-11-25T01:15:38.240Z,19.10
2018-11-25T01:18:06.726Z,18.77
2018-11-25T01:20:35.144Z,18.27
2018-11-25T01:23:03.546Z,18.83
2018-11-25T01:25:32.001Z,15.73
2018-11-25T01:28:00.378Z,17.77
2018-11-25T01:30:28.794Z,16.10
2018-11-25T01:32:57.222Z,16.77
2018-11-25T01:35:25.614Z,18.40
2018-11-25T01:37:54.093Z,16.97
2018-11-25T01:40:22.540Z,15.73
2018-11-25T01:42:50.978Z,17.03
2018-11-25T01:45:19.579Z,16.27
2018-11-25T01:47:48.028Z,16.70
2018-11-25T01:50:17.250Z,14.80
2018-11-25T01:52:46.180Z,16.97
2018-11-25T01:55:15.869Z,17.00
2018-11-25T01:57:44.357Z,17.50
2018-11-25T02:00:17.640Z,17.17
2018-11-25T02:02:46.052Z,18.10
2018-11-25T02:05:14.711Z,20.13
2018-11-25T02:07:43.230Z,17.37
2018-11-25T02:10:14.014Z,18.17
2018-11-25T02:12:42.535Z,18.33
2018-11-25T02:15:11.937Z,18.37
2018-11-25T02:17:40.475Z,18.40
2018-11-25T02:20:13.528Z,20.20
2018-11-25T02:22:41.945Z,17.60
2018-11-25T02:25:10.386Z,18.20
2018-11-25T02:27:38.873Z,18.70
2018-11-25T02:30:09.708Z,15.83
2018-11-25T02:32:38.146Z,18.20
2018-11-25T02:35:10.009Z,18.63
2018-11-25T02:37:38.614Z,17.47
2018-11-25T02:40:14.405Z,17.57
2018-11-25T02:42:42.821Z,17.47
2018-11-25T02:45:15.345Z,16.90
2018-11-25T02:47:43.806Z,17.23
2018-11-25T02:50:33.419Z,20.07
2018-11-25T02:53:05.637Z,18.37
2018-11-25T02:55:34.051Z,18.63
2018-11-25T02:58:02.481Z,18.70
2018-11-25T03:00:31.119Z,19.20
2018-11-25T03:02:59.482Z,19.70
2018-11-25T03:05:28.045Z,16.67
2018-11-25T03:07:56.554Z,20.27
2018-11-25T03:10:24.992Z,19.80
2018-11-25T03:12:53.454Z,20.77
2018-11-25T03:15:21.865Z,19.10
2018-11-25T03:17:50.261Z,18.97
2018-11-25T03:20:18.862Z,17.67
2018-11-25T03:22:47.278Z,18.10
2018-11-25T03:25:16.711Z,17.00
2018-11-25T03:27:45.169Z,19.57
2018-11-25T03:30:14.767Z,19.53
2018-11-25T03:32:43.835Z,19.27
2018-11-25T03:35:13.034Z,18.93
2018-11-25T03:37:41.466Z,20.10
2018-11-25T03:40:11.023Z,18.60
2018-11-25T03:42:39.609Z,19.40
2018-11-25T03:45:13.779Z,17.70
2018-11-25T03:47:42.246Z,18.93
2018-11-25T03:50:11.657Z,18.67
2018-11-25T03:52:40.436Z,17.57
2018-11-25T03:55:10.717Z,18.30
2018-11-25T03:57:39.089Z,17.53
2018-11-25T04:00:13.980Z,19.00
2018-11-25T04:02:42.454Z,18.80
2018-11-25T04:05:12.016Z,18.20
2018-11-25T04:07:40.653Z,18.90
2018-11-25T04:10:10.570Z,17.70
2018-11-25T04:12:39.174Z,18.80
2018-11-25T04:15:12.650Z,17.83
2018-11-25T04:17:41.213Z,18.47
2018-11-25T04:20:14.716Z,18.90
2018-11-25T04:22:43.241Z,16.97
2018-11-25T04:25:12.209Z,17.30
2018-11-25T04:27:40.611Z,17.47
2018-11-25T04:30:10.615Z,18.00
2018-11-25T04:32:39.058Z,16.30
2018-11-25T04:35:08.852Z,18.17
2018-11-25T04:37:37.555Z,18.20
2018-11-25T04:40:10.119Z,17.80
2018-11-25T04:42:38.551Z,17.73
2018-11-25T04:45:09.191Z,17.47
2018-11-25T04:47:37.889Z,18.77
2018-11-25T04:50:21.383Z,16.87
2018-11-25T04:52:49.841Z,17.17
2018-11-25T04:55:18.258Z,18.83
2018-11-25T04:57:49.425Z,15.57
2018-11-25T05:00:18.107Z,21.50
2018-11-25T05:02:46.672Z,15.70
2018-11-25T05:05:15.822Z,16.47
2018-11-25T05:07:44.246Z,17.20
2018-11-25T05:10:14.880Z,18.30
2018-11-25T05:12:43.434Z,15.90
2018-11-25T05:15:15.950Z,15.00
2018-11-25T05:17:44.344Z,17.73
2018-11-25T05:20:13.500Z,16.47
2018-11-25T05:22:41.971Z,19.27
2018-11-25T05:25:12.562Z,18.10
2018-11-25T05:27:41.002Z,18.30
2018-11-25T05:30:13.736Z,18.10
2018-11-25T05:32:42.305Z,16.03
2018-11-25T05:35:13.749Z,18.10
2018-11-25T05:37:42.213Z,18.43
2018-11-25T05:40:11.681Z,17.03
2018-11-25T05:42:40.423Z,16.20
2018-11-25T05:45:12.092Z,15.33
2018-11-25T05:47:40.556Z,17.77
2018-11-25T05:50:11.159Z,17.97
2018-11-25T05:52:39.824Z,18.03
2018-11-25T05:55:09.242Z,16.07
2018-11-25T05:57:37.839Z,16.07
2018-11-25T06:00:16.346Z,16.10
2018-11-25T06:02:44.815Z,18.20
2018-11-25T06:05:13.348Z,17.77
2018-11-25T06:07:41.927Z,17.87
2018-11-25T06:10:11.857Z,18.17
2018-11-25T06:12:40.321Z,18.40
2018-11-25T06:15:11.216Z,18.83
2018-11-25T06:17:39.816Z,17.13
2018-11-25T06:20:11.078Z,16.33
2018-11-25T06:22:39.463Z,19.13
2018-11-25T06:25:09.411Z,17.50
2018-11-25T06:27:38.466Z,18.90
2018-11-25T06:30:09.628Z,18.10
2018-11-25T06:32:38.146Z,18.67
2018-11-25T06:35:08.224Z,17.67
2018-11-25T06:37:37.121Z,19.70
2018-11-25T06:40:21.851Z,18.30
2018-11-25T06:42:50.286Z,19.40
2018-11-25T06:45:21.159Z,17.27
2018-11-25T06:47:49.561Z,17.50
2018-11-25T06:50:18.039Z,18.97
2018-11-25T06:52:46.542Z,17.47
2018-11-25T06:55:14.964Z,16.60
2018-11-25T06:57:43.405Z,17.97
2018-11-25T07:00:18.008Z,17.47
2018-11-25T07:02:46.521Z,17.73
2018-11-25T07:05:15.166Z,20.07
2018-11-25T07:07:43.620Z,19.73
2018-11-25T07:10:17.075Z,18.33
2018-11-25T07:12:45.583Z,17.80
2018-11-25T07:15:15.903Z,18.07
2018-11-25T07:17:44.304Z,20.47
2018-11-25T07:20:14.807Z,16.87
2018-11-25T07:22:43.236Z,18.43
2018-11-25T07:25:12.921Z,18.33
2018-11-25T07:27:41.397Z,17.83
2018-11-25T07:30:13.530Z,18.50
2018-11-25T07:32:41.924Z,16.90
2018-11-25T07:35:10.163Z,18.43
2018-11-25T07:37:38.616Z,17.20
2018-11-25T07:40:09.478Z,17.30
2018-11-25T07:42:37.988Z,17.47
2018-11-25T07:45:09.549Z,18.33
2018-11-25T07:47:38.029Z,17.37
2018-11-25T07:50:08.106Z,17.67
2018-11-25T07:52:36.831Z,18.43
2018-11-25T07:55:10.079Z,18.73
2018-11-25T07:57:38.653Z,20.20
2018-11-25T08:00:10.639Z,20.37
2018-11-25T08:02:41.707Z,21.07
2018-11-25T08:05:09.179Z,19.97
2018-11-25T08:07:37.547Z,25.30
2018-11-25T08:10:09.774Z,21.00
2018-11-25T08:12:38.212Z,22.47
2018-11-25T08:15:09.914Z,20.53
2018-11-25T08:17:38.880Z,19.47
2018-11-25T08:20:15.386Z,20.13
2018-11-25T08:22:43.799Z,20.13
2018-11-25T08:25:13.461Z,20.40
2018-11-25T08:27:42.202Z,19.33
2018-11-25T08:30:25.446Z,19.00
2018-11-25T08:32:54.007Z,18.97
2018-11-25T08:35:22.487Z,19.80
2018-11-25T08:37:50.973Z,21.13
2018-11-25T08:40:21.323Z,18.53
2018-11-25T08:42:49.820Z,18.80
2018-11-25T08:45:18.291Z,17.00
2018-11-25T08:47:46.706Z,17.97
2018-11-25T08:50:17.743Z,17.83
2018-11-25T08:52:47.395Z,20.40
2018-11-25T08:55:17.879Z,21.00
2018-11-25T08:57:46.253Z,18.80
2018-11-25T09:00:16.720Z,18.37
2018-11-25T09:02:45.235Z,19.40
2018-11-25T09:05:14.750Z,18.73
2018-11-25T09:07:43.414Z,20.33
2018-11-25T09:10:15.983Z,20.00
2018-11-25T09:12:45.283Z,19.90
2018-11-25T09:15:16.711Z,21.97
2018-11-25T09:22:42.921Z,18.43
2018-11-25T09:25:12.756Z,20.80
2018-11-25T09:27:41.269Z,21.53
2018-11-25T09:30:14.408Z,19.73
2018-11-25T09:32:42.906Z,25.07
2018-11-25T09:35:11.320Z,22.10
2018-11-25T09:37:39.740Z,19.77
2018-11-25T09:40:12.580Z,22.42
2018-11-25T09:42:41.076Z,18.70
2018-11-25T09:45:11.155Z,19.93
2018-11-25T09:47:39.614Z,20.40
2018-11-25T09:50:10.663Z,19.03
2018-11-25T09:52:39.171Z,18.47
2018-11-25T09:55:11.725Z,19.43
2018-11-25T09:57:40.864Z,18.83
2018-11-25T10:00:15.542Z,18.17
2018-11-25T10:02:43.942Z,17.50
2018-11-25T10:05:12.435Z,18.70
2018-11-25T10:07:40.900Z,18.73
2018-11-25T10:10:13.907Z,17.67
2018-11-25T10:12:42.365Z,18.63
2018-11-25T10:15:13.083Z,21.02
2018-11-25T10:17:41.494Z,21.37
2018-11-25T10:20:13.289Z,21.82
2018-11-25T10:22:41.886Z,21.27
2018-11-25T10:25:11.582Z,20.10
2018-11-25T10:27:40.059Z,21.52
2018-11-25T10:30:18.762Z,19.90
2018-11-25T10:32:48.474Z,20.82
2018-11-25T10:35:16.966Z,20.88
2018-11-25T10:37:45.444Z,19.25
2018-11-25T10:40:16.117Z,20.65
2018-11-25T10:42:44.567Z,21.00
2018-11-25T10:45:16.925Z,19.77
2018-11-25T10:47:45.349Z,19.95
2018-11-25T10:50:15.960Z,19.07
2018-11-25T10:52:44.435Z,18.62
2018-11-25T10:55:14.758Z,18.85
2018-11-25T10:57:44.200Z,19.42
2018-11-25T11:00:26.057Z,18.60
2018-11-25T11:03:00.135Z,17.67
2018-11-25T11:05:34.096Z,18.75
2018-11-25T11:08:02.593Z,15.07
2018-11-25T11:10:31.042Z,18.50
2018-11-25T11:12:59.680Z,19.75
2018-11-25T11:15:28.349Z,20.12
2018-11-25T11:17:56.845Z,18.37
2018-11-25T11:20:25.319Z,19.20
2018-11-25T11:22:53.845Z,18.32
2018-11-25T11:25:22.464Z,19.50
2018-11-25T11:27:51.031Z,17.82
2018-11-25T11:30:19.486Z,17.82
2018-11-25T11:32:49.472Z,17.27
2018-11-25T11:35:17.902Z,18.00
2018-11-25T11:37:46.432Z,16.90
2018-11-25T11:40:15.536Z,15.70
2018-11-25T11:42:44.000Z,15.10
2018-11-25T11:45:13.655Z,15.75
2018-11-25T11:47:42.923Z,14.30
2018-11-25T11:50:13.805Z,14.35
2018-11-25T11:52:42.291Z,13.93
2018-11-25T11:55:12.070Z,13.70
2018-11-25T11:57:41.279Z,12.90
2018-11-25T12:00:22.357Z,13.30
2018-11-25T12:02:51.083Z,13.35
2018-11-25T12:05:19.542Z,13.62
2018-11-25T12:07:48.083Z,14.00
2018-11-25T12:10:17.280Z,13.10
2018-11-25T12:12:45.889Z,13.35
2018-11-25T12:15:20.002Z,13.38
2018-11-25T12:17:48.500Z,12.93
2018-11-25T12:20:16.963Z,14.25
2018-11-25T12:22:45.623Z,12.80
2018-11-25T12:25:15.498Z,13.40
2018-11-25T12:27:44.020Z,13.08
2018-11-25T12:30:14.504Z,13.85
2018-11-25T12:32:44.116Z,13.43
2018-11-25T12:35:13.745Z,13.90
2018-11-25T12:37:42.271Z,12.80
2018-11-25T12:40:12.906Z,12.50
2018-11-25T12:42:41.926Z,12.10
2018-11-25T12:45:12.110Z,12.37
2018-11-25T12:47:40.700Z,12.53
2018-11-25T12:50:12.560Z,12.40
2018-11-25T12:52:41.264Z,12.30
2018-11-25T12:55:11.207Z,12.20
2018-11-25T12:57:39.893Z,11.90
2018-11-25T13:00:19.099Z,11.93
2018-11-25T13:02:47.613Z,11.75
2018-11-25T13:05:16.243Z,11.10
2018-11-25T13:07:44.870Z,11.08
2018-11-25T13:10:13.362Z,11.05
2018-11-25T13:12:41.860Z,10.70
2018-11-25T13:15:10.445Z,10.38
2018-11-25T13:17:38.884Z,10.50
2018-11-25T13:20:11.476Z,10.75
2018-11-25T13:22:40.380Z,10.70
2018-11-25T13:25:14.803Z,10.40
2018-11-25T13:27:43.415Z,9.90
2018-11-25T13:30:20.339Z,11.45
2018-11-25T13:32:48.402Z,9.40
2018-11-25T13:35:16.958Z,10.15
2018-11-25T13:37:45.520Z,10.30
2018-11-25T13:40:14.973Z,9.83
2018-11-25T13:42:43.566Z,10.25
2018-11-25T13:45:12.162Z,10.43
2018-11-25T13:47:40.651Z,11.18
2018-11-25T13:50:10.223Z,9.70
2018-11-25T13:52:39.020Z,8.00
2018-11-25T13:55:14.818Z,8.43
2018-11-25T13:57:43.358Z,8.25
2018-11-25T14:00:23.095Z,7.72
2018-11-25T14:02:51.671Z,7.50
2018-11-25T14:05:20.378Z,7.85
2018-11-25T14:07:48.899Z,7.28
2018-11-25T14:10:20.707Z,6.60
2018-11-25T14:12:49.287Z,5.87
2018-11-25T14:15:17.728Z,5.93
2018-11-25T14:17:46.244Z,6.00
2018-11-25T14:20:14.835Z,5.70
2018-11-25T14:22:43.302Z,5.37
2018-11-25T14:25:13.572Z,4.73
2018-11-25T14:27:42.185Z,5.73
2018-11-25T14:30:13.425Z,5.33
2018-11-25T14:32:41.399Z,4.70
2018-11-25T14:35:11.661Z,5.30
2018-11-25T14:37:40.243Z,4.57
2018-11-25T14:40:11.200Z,5.00
2018-11-25T14:42:39.825Z,6.63
2018-11-25T14:45:11.222Z,6.83
2018-11-25T14:47:39.804Z,7.43
2018-11-25T14:50:11.757Z,8.00
2018-11-25T14:52:41.831Z,8.83
2018-11-25T14:55:12.729Z,7.37
2018-11-25T14:57:41.575Z,8.03
2018-11-25T15:00:12.029Z,7.93
2018-11-25T15:02:40.539Z,9.03
2018-11-25T15:05:12.003Z,10.00
2018-11-25T15:07:40.447Z,9.80
2018-11-25T15:10:09.171Z,10.27
2018-11-25T15:12:37.661Z,9.67
2018-11-25T15:15:09.545Z,8.50
2018-11-25T15:20:08.366Z,10.00
2018-11-25T15:25:04.781Z,12.70
2018-11-25T15:27:33.255Z,10.87
2018-11-25T15:30:01.808Z,13.00
2018-11-25T15:32:30.405Z,11.37
2018-11-25T15:34:58.882Z,12.77
2018-11-25T15:37:27.594Z,12.30
2018-11-25T15:39:56.163Z,11.53
2018-11-25T15:42:24.643Z,12.03
2018-11-25T15:44:53.138Z,12.20
2018-11-25T15:47:21.667Z,14.00
2018-11-25T15:49:50.263Z,13.20
2018-11-25T15:52:18.637Z,13.50
2018-11-25T15:54:47.170Z,13.20
2018-11-25T15:57:15.755Z,14.83
2018-11-25T15:59:44.230Z,16.60
2018-11-25T16:02:12.710Z,19.80
2018-11-25T16:04:41.219Z,14.07
2018-11-25T16:07:09.665Z,17.63
2018-11-25T16:09:38.277Z,15.17
2018-11-25T16:12:06.838Z,18.03
2018-11-25T16:14:35.419Z,16.40
2018-11-25T16:17:03.913Z,17.67
2018-11-25T16:22:00.131Z,16.03
2018-11-25T16:24:28.638Z,15.93
2018-11-25T16:26:57.383Z,16.47
2018-11-25T16:29:27.128Z,18.10
2018-11-25T16:31:56.026Z,19.60
2018-11-25T16:36:52.467Z,19.30
2018-11-25T16:39:21.028Z,21.27
2018-11-25T16:41:49.541Z,19.32
2018-11-25T16:46:45.990Z,18.52
2018-11-25T16:49:14.636Z,17.13
2018-11-25T16:51:43.115Z,17.60
2018-11-25T16:54:11.667Z,16.30
2018-11-25T16:56:40.468Z,17.27
2018-11-25T16:59:08.875Z,17.80
2018-11-25T17:01:37.362Z,16.40
2018-11-25T17:04:06.153Z,18.10
2018-11-25T17:06:35.464Z,16.40
2018-11-25T17:09:07.866Z,17.97
2018-11-25T17:11:36.434Z,17.83
2018-11-25T17:14:05.608Z,15.67
2018-11-25T17:16:34.241Z,16.80
2018-11-25T17:19:02.678Z,17.17
2018-11-25T17:21:31.246Z,17.23
2018-11-25T17:23:59.768Z,16.83
2018-11-25T17:26:28.446Z,18.50
2018-11-25T17:28:57.237Z,24.30
2018-11-25T17:31:25.775Z,21.23
2018-11-25T17:33:54.250Z,17.67
2018-11-25T17:36:22.773Z,19.50
2018-11-25T17:38:51.268Z,18.55
2018-11-25T17:41:19.705Z,15.90
2018-11-25T17:43:48.191Z,14.85
2018-11-25T17:46:16.631Z,15.90
2018-11-25T17:48:45.264Z,16.60
2018-11-25T17:51:13.681Z,14.20
2018-11-25T17:53:42.265Z,13.07
2018-11-25T17:56:10.649Z,14.30
2018-11-25T17:58:39.269Z,12.90
2018-11-25T18:01:08.251Z,13.50
2018-11-25T18:03:37.988Z,11.90
2018-11-25T18:06:06.865Z,12.67
2018-11-25T18:08:35.365Z,12.77
2018-11-25T18:11:03.879Z,18.80
2018-11-25T18:13:34.562Z,19.37
2018-11-25T18:16:04.416Z,17.33
2018-11-25T18:18:38.874Z,16.80
2018-11-25T18:21:10.162Z,19.50
2018-11-25T18:23:38.767Z,18.47
2018-11-25T18:26:07.485Z,17.07
2018-11-25T18:28:36.185Z,17.53
2018-11-25T18:31:05.017Z,17.17
2018-11-25T18:33:33.602Z,17.57
2018-11-25T18:36:02.266Z,17.53
2018-11-25T18:38:30.747Z,19.00
2018-11-25T18:40:59.292Z,16.33
2018-11-25T18:43:27.924Z,19.00
2018-11-25T18:45:59.331Z,17.87
2018-11-25T18:48:24.962Z,19.07
2018-11-25T18:50:53.456Z,19.50
2018-11-25T18:53:22.024Z,17.90
2018-11-25T18:55:49.983Z,17.63
2018-11-25T18:58:18.496Z,18.70
2018-11-25T19:00:55.020Z,19.73
2018-11-25T19:03:23.647Z,20.30
2018-11-25T19:05:52.244Z,18.83
2018-11-25T19:08:21.003Z,20.70
2018-11-25T19:10:49.805Z,18.70
2018-11-25T19:13:18.370Z,19.32
2018-11-25T19:15:47.077Z,19.75
2018-11-25T19:18:15.640Z,18.80
2018-11-25T19:20:44.233Z,17.83
2018-11-25T19:23:12.826Z,20.07
2018-11-25T19:25:41.481Z,17.87
2018-11-25T19:28:10.370Z,20.20
2018-11-25T19:30:39.031Z,20.50
2018-11-25T19:33:09.394Z,19.87
2018-11-25T19:35:38.196Z,18.50
2018-11-25T19:38:07.980Z,20.93
2018-11-25T19:40:36.444Z,20.27
2018-11-25T19:43:05.437Z,19.77
2018-11-25T19:45:33.949Z,17.87
2018-11-25T19:48:02.587Z,20.27
2018-11-25T19:50:35.415Z,20.80
2018-11-25T19:53:04.180Z,19.60
2018-11-25T19:55:32.654Z,16.43
2018-11-25T19:58:01.145Z,17.33
2018-11-25T20:00:29.709Z,19.63
2018-11-25T20:02:58.260Z,16.97
2018-11-25T20:05:26.903Z,18.37
2018-11-25T20:07:55.652Z,18.03
2018-11-25T20:10:25.174Z,18.60
2018-11-25T20:12:56.977Z,17.27
2018-11-25T20:15:25.714Z,16.00
2018-11-25T20:17:54.821Z,17.77
2018-11-25T20:20:24.981Z,15.60
2018-11-25T20:22:54.105Z,17.67
2018-11-25T20:25:22.681Z,15.17
2018-11-25T20:27:53.323Z,14.93
2018-11-25T20:30:23.310Z,16.87
2018-11-25T20:32:57.204Z,19.30
2018-11-25T20:35:25.830Z,16.63
2018-11-25T20:37:59.783Z,19.53
2018-11-25T20:40:28.360Z,20.13
2018-11-25T20:42:56.992Z,19.43
2018-11-25T20:45:34.023Z,20.77
2018-11-25T20:48:00.144Z,18.50
2018-11-25T20:50:28.906Z,17.20
2018-11-25T20:53:02.992Z,19.57
2018-11-25T20:55:31.565Z,17.57
2018-11-25T20:58:00.118Z,20.67
2018-11-25T21:00:29.883Z,17.77
2018-11-25T21:02:58.483Z,15.80
2018-11-25T21:05:27.090Z,20.10
2018-11-25T21:07:55.716Z,23.40
2018-11-25T21:10:24.235Z,22.07
2018-11-25T21:12:54.000Z,18.60
2018-11-25T21:15:22.600Z,16.00
2018-11-25T21:17:51.258Z,15.40
2018-11-25T21:20:22.390Z,21.10
2018-11-25T21:22:50.992Z,18.20
2018-11-25T21:25:20.918Z,16.73
2018-11-25T21:27:49.611Z,15.57
2018-11-25T21:30:20.426Z,18.47
2018-11-25T21:32:50.124Z,17.27
2018-11-25T21:35:18.632Z,17.00
2018-11-25T21:37:48.037Z,17.33
2018-11-25T21:40:20.694Z,19.00
2018-11-25T21:42:49.191Z,17.57
2018-11-25T21:45:18.890Z,18.27
2018-11-25T21:47:48.196Z,18.90
2018-11-25T21:50:19.177Z,18.97
2018-11-25T21:52:47.762Z,18.27
2018-11-25T21:55:17.293Z,18.67
2018-11-25T21:57:45.838Z,16.73
2018-11-25T22:00:17.584Z,17.70
2018-11-25T22:02:46.449Z,20.53
2018-11-25T22:05:15.307Z,18.77
2018-11-25T22:07:44.074Z,21.03
2018-11-25T22:10:14.191Z,19.63
2018-11-25T22:12:43.413Z,19.77
2018-11-25T22:15:15.231Z,18.67
2018-11-25T22:17:44.051Z,19.53
2018-11-25T22:20:13.432Z,21.77
2018-11-25T22:22:41.977Z,21.00
2018-11-25T22:25:12.647Z,18.07
2018-11-25T22:27:41.160Z,16.23
2018-11-25T22:30:11.993Z,17.60
2018-11-25T22:32:40.669Z,17.03
2018-11-25T22:35:11.183Z,18.00
2018-11-25T22:37:39.793Z,17.90
2018-11-25T22:40:09.702Z,16.83
2018-11-25T22:42:38.887Z,16.10
2018-11-25T22:45:10.132Z,18.30
2018-11-25T22:47:38.701Z,15.87
2018-11-25T22:50:10.611Z,16.80
2018-11-25T22:52:39.310Z,17.43
2018-11-25T22:55:14.519Z,17.23
2018-11-25T22:57:43.169Z,17.57
2018-11-25T23:00:23.445Z,19.97
2018-11-25T23:02:51.851Z,17.80
2018-11-25T23:05:31.626Z,18.73
2018-11-25T23:08:00.576Z,22.20
2018-11-25T23:10:29.473Z,16.67
2018-11-25T23:12:57.918Z,18.03
2018-11-25T23:15:26.407Z,18.67
2018-11-25T23:17:54.839Z,18.43
2018-11-25T23:20:23.299Z,20.10
2018-11-25T23:22:51.732Z,19.80
2018-11-25T23:25:20.119Z,20.93
2018-11-25T23:27:48.798Z,17.80
2018-11-25T23:30:17.316Z,17.60
2018-11-25T23:32:45.986Z,17.50
2018-11-25T23:35:20.247Z,18.37
2018-11-25T23:37:48.665Z,21.07
2018-11-25T23:40:17.154Z,19.33
2018-11-25T23:42:45.618Z,18.67
2018-11-25T23:45:15.305Z,17.40
2018-11-25T23:47:43.812Z,19.27
2018-11-25T23:50:13.254Z,19.30
2018-11-25T23:52:42.568Z,20.13
2018-11-25T23:55:13.947Z,19.77
2018-11-25T23:57:42.464Z,22.43
